Terminal Aerodrome Forecast
Issued by NWS Wilmington, OH

Home | Current Version | Previous Version | Text Only | Print | Product List | Glossary On
Versions: 1 2 3 4 5 6 7 8 9 10 11 12 13 14 15 16 17 18 19 20 21 22 23 24 25
901
FTUS41 KILN 282347
TAFILN
TAF
KILN 282347Z 2900/2924 29005KT P6SM -SHRA SCT025 BKN035
     FM290200 00000KT 6SM BR SCT005 BKN150
     FM290500 00000KT 4SM BR BKN005
     FM290800 00000KT 1SM BR OVC002
      TEMPO 2908/2912 1/4SM FG
     FM291300 02005KT 4SM BR OVC004
     FM291600 02005KT P6SM BKN012
     FM291800 02005KT P6SM VCSH SCT025 BKN050
     FM292200 03004KT P6SM -SHRA BKN035=

USA.gov is the U.S. government's official web portal to all federal, state and local government web resources and services.